Eola, Illinois
Current Conditions -  °F | °C
As of 8:52 AM on Friday 28 Nov 2014 (Local Time) from KDPA Reporting Station
Scattered Clouds Scattered Clouds  
Wind Chill:   Ceiling: Unl
Heat Index: 20°   Visibility: 10mi
Dew Point: 14°   Wind: 14mph
Humidity: 78%   Direction: 160°SSE
Pressure: 30.22"   Gusts: NA
Location:  41.78°N, 88.24°W
Report Text: KDPA 281452Z 16012KT 10SM SCT024 M07/M10 A3022 RMK AO2 SLP247 T10671100 58017
Loading
Personal Weather Stations






























Interactive Weather Map New forecast layout! Learn more

10-Day Weather Forecast

Advertisements
Track Severe Weather on mobile